createdAt,value
2018-12-14T00:00:22.223Z,1.61
2018-12-14T00:02:51.035Z,1.59
2018-12-14T00:05:19.834Z,1.60
2018-12-14T00:07:48.647Z,1.54
2018-12-14T00:10:17.443Z,1.45
2018-12-14T00:12:46.492Z,1.42
2018-12-14T00:15:15.295Z,1.37
2018-12-14T00:17:44.080Z,1.31
2018-12-14T00:20:12.872Z,1.28
2018-12-14T00:22:41.677Z,1.24
2018-12-14T00:25:10.470Z,1.21
2018-12-14T00:27:39.268Z,1.17
2018-12-14T00:30:08.874Z,1.11
2018-12-14T00:32:37.668Z,1.12
2018-12-14T00:35:06.595Z,1.07
2018-12-14T00:37:35.391Z,1.05
2018-12-14T00:40:04.501Z,1.04
2018-12-14T00:42:33.309Z,1.03
2018-12-14T00:45:02.102Z,1.01
2018-12-14T00:47:30.890Z,0.98
2018-12-14T00:49:59.687Z,0.94
2018-12-14T00:52:28.493Z,0.92
2018-12-14T00:54:57.306Z,0.90
2018-12-14T00:57:26.111Z,0.88
2018-12-14T00:59:54.916Z,0.86
2018-12-14T01:02:29.651Z,0.84
2018-12-14T01:04:58.503Z,0.79
2018-12-14T01:07:27.357Z,0.79
2018-12-14T01:09:56.150Z,0.78
2018-12-14T01:12:24.996Z,0.77
2018-12-14T01:14:53.801Z,0.76
2018-12-14T01:17:22.607Z,0.76
2018-12-14T01:19:51.713Z,0.74
2018-12-14T01:22:20.566Z,0.74
2018-12-14T01:24:49.376Z,0.71
2018-12-14T01:27:18.176Z,0.69
2018-12-14T01:29:47.021Z,0.66
2018-12-14T01:32:15.830Z,0.63
2018-12-14T01:34:44.714Z,0.61
2018-12-14T01:37:13.488Z,0.61
2018-12-14T01:39:42.277Z,0.61
2018-12-14T01:42:11.078Z,0.57
2018-12-14T01:44:39.976Z,0.54
2018-12-14T01:47:08.815Z,0.53
2018-12-14T01:49:37.632Z,0.52
2018-12-14T01:52:06.441Z,0.53
2018-12-14T01:54:35.224Z,0.51
2018-12-14T01:57:04.015Z,0.50
2018-12-14T01:59:33.359Z,0.52
2018-12-14T02:02:02.147Z,0.50
2018-12-14T02:04:31.268Z,0.53
2018-12-14T02:07:00.048Z,0.52
2018-12-14T02:09:28.855Z,0.48
2018-12-14T02:11:57.643Z,0.49
2018-12-14T02:14:26.457Z,0.51
2018-12-14T02:16:55.254Z,0.47
2018-12-14T02:19:24.112Z,0.48
2018-12-14T02:21:52.919Z,0.50
2018-12-14T02:24:21.735Z,0.51
2018-12-14T02:26:50.527Z,0.49
2018-12-14T02:29:19.322Z,0.48
2018-12-14T02:31:48.126Z,0.48
2018-12-14T02:34:16.927Z,0.50
2018-12-14T02:36:45.714Z,0.52
2018-12-14T02:39:14.507Z,0.53
2018-12-14T02:41:43.302Z,0.51
2018-12-14T02:44:12.104Z,0.51
2018-12-14T02:46:40.898Z,0.50
2018-12-14T02:49:09.694Z,0.52
2018-12-14T02:51:38.483Z,0.54
2018-12-14T02:54:07.273Z,0.53
2018-12-14T02:56:36.088Z,0.52
2018-12-14T02:59:04.892Z,0.55
2018-12-14T03:01:34.179Z,0.56
2018-12-14T03:04:02.992Z,0.53
2018-12-14T03:06:32.514Z,0.54
2018-12-14T03:09:01.297Z,0.52
2018-12-14T03:11:30.133Z,0.52
2018-12-14T03:13:58.971Z,0.54
2018-12-14T03:16:27.769Z,0.54
2018-12-14T03:18:56.556Z,0.54
2018-12-14T03:21:25.430Z,0.54
2018-12-14T03:23:54.234Z,0.50
2018-12-14T03:26:23.062Z,0.52
2018-12-14T03:28:51.867Z,0.61
2018-12-14T03:31:20.678Z,0.52
2018-12-14T03:33:49.454Z,0.52
2018-12-14T03:36:19.162Z,0.53
2018-12-14T03:38:47.939Z,0.53
2018-12-14T03:41:16.826Z,0.53
2018-12-14T03:43:45.544Z,0.52
2018-12-14T03:46:14.329Z,0.54
2018-12-14T03:48:43.104Z,0.54
2018-12-14T03:51:11.904Z,0.53
2018-12-14T03:53:40.743Z,0.54
2018-12-14T03:56:09.625Z,0.54
2018-12-14T03:58:38.390Z,0.51
2018-12-14T04:01:07.177Z,0.54
2018-12-14T04:03:36.683Z,0.55
2018-12-14T04:06:05.491Z,0.53
2018-12-14T04:08:34.283Z,0.49
2018-12-14T04:11:03.058Z,0.49
2018-12-14T04:13:31.916Z,0.49
2018-12-14T04:16:00.700Z,0.48
2018-12-14T04:18:29.595Z,0.51
2018-12-14T04:20:58.367Z,0.48
2018-12-14T04:23:27.177Z,0.50
2018-12-14T04:25:55.967Z,0.47
2018-12-14T04:28:24.759Z,0.49
2018-12-14T04:30:53.558Z,0.48
2018-12-14T04:33:22.455Z,0.47
2018-12-14T04:35:51.277Z,0.46
2018-12-14T04:38:20.103Z,0.46
2018-12-14T04:40:48.891Z,0.48
2018-12-14T04:43:17.742Z,0.47
2018-12-14T04:45:46.890Z,0.50
2018-12-14T04:48:15.680Z,0.51
2018-12-14T04:50:44.512Z,0.48
2018-12-14T04:53:13.298Z,0.48
2018-12-14T04:55:42.134Z,0.49
2018-12-14T04:58:10.922Z,0.49
2018-12-14T05:00:39.722Z,0.48
2018-12-14T05:03:08.499Z,0.46
2018-12-14T05:05:37.296Z,0.45
2018-12-14T05:08:06.083Z,0.45
2018-12-14T05:10:34.862Z,0.43
2018-12-14T05:13:03.980Z,0.41
2018-12-14T05:15:32.838Z,0.43
2018-12-14T05:18:01.612Z,0.42
2018-12-14T05:20:30.828Z,0.38
2018-12-14T05:22:59.714Z,0.39
2018-12-14T05:25:28.494Z,0.40
2018-12-14T05:27:57.278Z,0.42
2018-12-14T05:30:26.081Z,0.42
2018-12-14T05:32:54.956Z,0.44
2018-12-14T05:35:23.775Z,0.43
2018-12-14T05:37:52.810Z,0.43
2018-12-14T05:40:21.617Z,0.43
2018-12-14T05:42:50.420Z,0.43
2018-12-14T05:45:19.231Z,0.43
2018-12-14T05:47:48.322Z,0.41
2018-12-14T05:50:17.123Z,0.41
2018-12-14T05:52:45.907Z,0.41
2018-12-14T05:55:14.712Z,0.40
2018-12-14T05:57:43.537Z,0.43
2018-12-14T06:00:12.669Z,0.39
2018-12-14T06:02:41.494Z,0.41
2018-12-14T06:05:10.291Z,0.42
2018-12-14T06:07:39.390Z,0.39
2018-12-14T06:10:08.712Z,0.38
2018-12-14T06:12:38.734Z,0.35
2018-12-14T06:15:07.518Z,0.35
2018-12-14T06:17:36.325Z,0.35
2018-12-14T06:20:05.654Z,0.34
2018-12-14T06:22:35.063Z,0.34
2018-12-14T06:25:03.910Z,0.35
2018-12-14T06:27:33.380Z,0.34
2018-12-14T06:30:02.217Z,0.36
2018-12-14T06:32:32.351Z,0.36
2018-12-14T06:35:01.426Z,0.36
2018-12-14T06:37:30.209Z,0.35
2018-12-14T06:39:59.096Z,0.34
2018-12-14T06:42:27.940Z,0.36
2018-12-14T06:44:56.785Z,0.35
2018-12-14T06:47:25.603Z,0.35
2018-12-14T06:49:54.460Z,0.34
2018-12-14T06:52:23.290Z,0.34
2018-12-14T06:54:52.101Z,0.34
2018-12-14T06:57:20.935Z,0.32
2018-12-14T06:59:50.854Z,0.31
2018-12-14T07:02:19.997Z,0.32
2018-12-14T07:04:48.790Z,0.31
2018-12-14T07:07:17.576Z,0.30
2018-12-14T07:09:46.383Z,0.28
2018-12-14T07:12:15.223Z,0.30
2018-12-14T07:14:44.004Z,0.28
2018-12-14T07:17:12.893Z,0.28
2018-12-14T07:19:41.627Z,0.31
2018-12-14T07:22:10.435Z,0.30
2018-12-14T07:24:39.230Z,0.31
2018-12-14T07:27:08.031Z,0.31
2018-12-14T07:29:36.827Z,0.31
2018-12-14T07:32:06.820Z,0.31
2018-12-14T07:34:35.619Z,0.34
2018-12-14T07:37:04.441Z,0.35
2018-12-14T07:39:33.269Z,0.35
2018-12-14T07:42:02.319Z,0.35
2018-12-14T07:44:31.245Z,0.33
2018-12-14T07:47:00.002Z,0.32
2018-12-14T07:49:28.807Z,0.34
2018-12-14T07:51:57.599Z,0.34
2018-12-14T07:54:26.409Z,0.33
2018-12-14T07:56:55.794Z,0.33
2018-12-14T07:59:24.063Z,0.32
2018-12-14T08:01:52.984Z,0.31
2018-12-14T08:04:21.824Z,0.32
2018-12-14T08:06:50.660Z,0.33
2018-12-14T08:09:19.468Z,0.35
2018-12-14T08:11:48.299Z,0.37
2018-12-14T08:14:17.140Z,0.39
2018-12-14T08:16:45.949Z,0.42
2018-12-14T08:19:14.774Z,0.40
2018-12-14T08:21:43.584Z,0.44
2018-12-14T08:24:12.375Z,0.44
2018-12-14T08:26:41.198Z,0.44
2018-12-14T08:29:09.979Z,0.47
2018-12-14T08:31:39.319Z,0.47
2018-12-14T08:34:08.149Z,0.47
2018-12-14T08:36:36.946Z,0.49
2018-12-14T08:39:07.304Z,0.52
2018-12-14T08:41:36.124Z,0.55
2018-12-14T08:44:04.961Z,0.55
2018-12-14T08:46:33.751Z,0.55
2018-12-14T08:49:02.544Z,0.51
2018-12-14T08:51:31.357Z,0.55
2018-12-14T08:54:00.143Z,0.50
2018-12-14T08:56:28.936Z,0.52
2018-12-14T08:58:57.768Z,0.58
2018-12-14T09:01:26.566Z,0.60
2018-12-14T09:03:55.347Z,0.59
2018-12-14T09:06:24.208Z,0.58
2018-12-14T09:08:52.994Z,0.57
2018-12-14T09:11:21.811Z,0.62
2018-12-14T09:13:50.633Z,0.68
2018-12-14T09:16:19.443Z,0.71
2018-12-14T09:18:48.247Z,0.68
2018-12-14T09:21:17.484Z,0.70
2018-12-14T09:23:46.340Z,0.76
2018-12-14T09:26:15.163Z,0.77
2018-12-14T09:28:44.620Z,0.80
2018-12-14T09:31:13.440Z,0.77
2018-12-14T09:33:42.222Z,0.75
2018-12-14T09:36:11.030Z,0.79
2018-12-14T09:38:39.909Z,0.83
2018-12-14T09:41:08.757Z,0.89
2018-12-14T09:43:37.559Z,0.88
2018-12-14T09:46:06.375Z,0.90
2018-12-14T09:48:35.203Z,0.99
2018-12-14T09:51:04.356Z,0.94
2018-12-14T09:53:33.219Z,0.96
2018-12-14T09:56:02.127Z,0.99
2018-12-14T09:58:30.909Z,1.03
2018-12-14T10:00:59.780Z,1.20
2018-12-14T10:03:28.603Z,1.32
2018-12-14T10:05:57.411Z,1.46
2018-12-14T10:08:26.248Z,1.53
2018-12-14T10:10:55.858Z,1.64
2018-12-14T10:13:24.667Z,1.72
2018-12-14T10:15:53.490Z,1.79
2018-12-14T10:18:22.399Z,1.77
2018-12-14T10:20:51.179Z,1.64
2018-12-14T10:23:20.007Z,1.65
2018-12-14T10:25:49.029Z,1.80
2018-12-14T10:28:17.828Z,1.93
2018-12-14T10:30:46.672Z,2.15
2018-12-14T10:33:15.468Z,2.20
2018-12-14T10:35:44.271Z,2.21
2018-12-14T10:38:13.888Z,2.31
2018-12-14T10:40:42.693Z,2.24
2018-12-14T10:43:11.495Z,2.37
2018-12-14T10:45:40.300Z,2.52
2018-12-14T10:48:09.111Z,2.59
2018-12-14T10:50:39.753Z,2.68
2018-12-14T10:53:12.607Z,2.77
2018-12-14T10:55:41.663Z,2.83
2018-12-14T10:58:11.580Z,2.92
2018-12-14T11:00:45.854Z,3.03
2018-12-14T11:03:17.630Z,3.15
2018-12-14T11:05:46.453Z,3.06
2018-12-14T11:08:15.257Z,3.03
2018-12-14T11:10:44.039Z,3.00
2018-12-14T11:13:12.830Z,2.99
2018-12-14T11:15:41.672Z,3.09
2018-12-14T11:18:10.483Z,3.16
2018-12-14T11:20:39.286Z,3.18
2018-12-14T11:23:08.083Z,3.21
2018-12-14T11:25:37.035Z,3.12
2018-12-14T11:28:05.903Z,3.26
2018-12-14T11:30:34.706Z,3.38
2018-12-14T11:33:03.906Z,3.52
2018-12-14T11:35:33.095Z,3.71
2018-12-14T11:38:01.882Z,3.68
2018-12-14T11:40:30.713Z,3.43
2018-12-14T11:42:59.499Z,3.23
2018-12-14T11:45:28.309Z,3.14
2018-12-14T11:47:57.100Z,3.27
2018-12-14T11:50:25.943Z,3.28
2018-12-14T11:52:54.758Z,3.31
2018-12-14T11:55:23.614Z,3.26
2018-12-14T11:57:52.420Z,3.36
2018-12-14T12:00:21.223Z,3.28
2018-12-14T12:02:50.026Z,3.00
2018-12-14T12:05:18.828Z,2.85
2018-12-14T12:07:47.627Z,2.90
2018-12-14T12:10:16.449Z,2.83
2018-12-14T12:12:45.236Z,2.83
2018-12-14T12:15:14.628Z,2.75
2018-12-14T12:17:49.249Z,2.67
2018-12-14T12:20:12.232Z,2.68
2018-12-14T12:22:41.023Z,2.73
2018-12-14T12:25:09.839Z,2.78
2018-12-14T12:27:38.640Z,2.85
2018-12-14T12:30:08.459Z,2.74
2018-12-14T12:32:37.307Z,2.67
2018-12-14T12:35:06.153Z,2.64
2018-12-14T12:37:34.972Z,2.64
2018-12-14T12:40:03.819Z,2.63
2018-12-14T12:42:32.622Z,2.66
2018-12-14T12:45:01.432Z,2.60
2018-12-14T12:47:30.208Z,2.61
2018-12-14T12:49:59.011Z,2.57
2018-12-14T12:52:27.798Z,2.57
2018-12-14T12:54:56.596Z,2.63
2018-12-14T12:57:25.391Z,2.67
2018-12-14T12:59:54.170Z,2.66
2018-12-14T13:02:23.050Z,2.66
2018-12-14T13:04:51.855Z,2.65
2018-12-14T13:07:20.733Z,2.64
2018-12-14T13:09:49.536Z,2.62
2018-12-14T13:12:18.340Z,2.68
2018-12-14T13:14:47.134Z,2.71
2018-12-14T13:17:15.943Z,2.77
2018-12-14T13:19:44.770Z,2.70
2018-12-14T13:22:13.591Z,2.68
2018-12-14T13:24:42.385Z,2.67
2018-12-14T13:27:11.203Z,2.72
2018-12-14T13:29:40.031Z,2.73
2018-12-14T13:32:08.820Z,2.73
2018-12-14T13:34:37.627Z,2.72
2018-12-14T13:37:06.511Z,2.74
2018-12-14T13:39:35.334Z,2.79
2018-12-14T13:42:04.122Z,2.72
2018-12-14T13:44:33.302Z,2.66
2018-12-14T13:47:02.195Z,2.66
2018-12-14T13:49:30.914Z,2.63
2018-12-14T13:52:00.568Z,2.63
2018-12-14T13:54:29.366Z,2.58
2018-12-14T13:56:58.153Z,2.60
2018-12-14T13:59:26.943Z,2.68
2018-12-14T14:01:55.817Z,2.72
2018-12-14T14:04:24.600Z,2.70
2018-12-14T14:06:53.411Z,2.62
2018-12-14T14:09:22.208Z,2.65
2018-12-14T14:11:51.007Z,2.60
2018-12-14T14:14:19.804Z,2.63
2018-12-14T14:16:48.610Z,2.57
2018-12-14T14:19:17.423Z,2.56
2018-12-14T14:21:46.223Z,2.52
2018-12-14T14:24:15.555Z,2.54
2018-12-14T14:26:44.698Z,2.51
2018-12-14T14:29:13.130Z,2.52
2018-12-14T14:31:41.975Z,2.51
2018-12-14T14:34:10.774Z,2.55
2018-12-14T14:36:39.587Z,2.58
2018-12-14T14:39:08.428Z,2.59
2018-12-14T14:41:37.251Z,2.56
2018-12-14T14:44:06.043Z,2.55
2018-12-14T14:46:35.845Z,2.56
2018-12-14T14:49:04.698Z,2.55
2018-12-14T14:51:33.495Z,2.56
2018-12-14T14:54:02.320Z,2.51
2018-12-14T14:56:31.746Z,2.47
2018-12-14T14:59:00.566Z,2.49
2018-12-14T15:01:29.381Z,2.49
2018-12-14T15:03:58.206Z,2.50
2018-12-14T15:06:26.999Z,2.51
2018-12-14T15:08:55.782Z,2.50
2018-12-14T15:11:24.587Z,2.47
2018-12-14T15:13:53.370Z,2.44
2018-12-14T15:16:22.196Z,2.40
2018-12-14T15:18:50.987Z,2.40
2018-12-14T15:21:19.787Z,2.41
2018-12-14T15:23:49.168Z,2.41
2018-12-14T15:26:17.967Z,2.45
2018-12-14T15:28:46.766Z,2.47
2018-12-14T15:31:15.556Z,2.50
2018-12-14T15:33:44.595Z,2.43
2018-12-14T15:36:13.390Z,2.43
2018-12-14T15:38:42.272Z,2.40
2018-12-14T15:41:11.042Z,2.37
2018-12-14T15:45:13.271Z,2.36
2018-12-14T15:47:40.027Z,2.34
2018-12-14T15:50:08.844Z,2.29
2018-12-14T15:52:37.637Z,2.29
2018-12-14T15:55:06.727Z,2.27
2018-12-14T15:57:35.536Z,2.27
2018-12-14T16:00:04.552Z,2.28
2018-12-14T16:02:33.587Z,2.27
2018-12-14T16:05:02.420Z,2.26
2018-12-14T16:07:31.284Z,2.23
2018-12-14T16:10:00.108Z,2.26
2018-12-14T16:12:30.246Z,2.26
2018-12-14T16:14:59.071Z,2.26
2018-12-14T16:17:27.864Z,2.30
2018-12-14T16:19:56.681Z,2.30
2018-12-14T16:22:25.489Z,2.36
2018-12-14T16:24:54.388Z,2.33
2018-12-14T16:27:23.353Z,2.32
2018-12-14T16:29:52.249Z,2.30
2018-12-14T16:32:21.043Z,2.29
2018-12-14T16:34:49.885Z,2.27
2018-12-14T16:37:18.692Z,2.28
2018-12-14T16:39:48.496Z,2.30
2018-12-14T16:42:17.303Z,2.31
2018-12-14T16:44:46.118Z,2.31
2018-12-14T16:47:15.124Z,2.31
2018-12-14T16:49:43.924Z,2.30
2018-12-14T16:52:12.723Z,2.31
2018-12-14T16:54:41.566Z,2.33
2018-12-14T16:57:10.353Z,2.34
2018-12-14T16:59:39.363Z,2.35
2018-12-14T17:02:08.265Z,2.34
2018-12-14T17:04:37.079Z,2.30
2018-12-14T17:07:05.884Z,2.31
2018-12-14T17:09:34.728Z,2.32
2018-12-14T17:12:03.543Z,2.32
2018-12-14T17:14:32.404Z,2.35
2018-12-14T17:17:02.510Z,2.38
2018-12-14T17:19:32.506Z,2.41
2018-12-14T17:22:01.306Z,2.42
2018-12-14T17:24:31.052Z,2.38
2018-12-14T17:26:59.931Z,2.36
2018-12-14T17:29:30.803Z,2.35
2018-12-14T17:31:59.935Z,2.35
2018-12-14T17:34:28.742Z,2.33
2018-12-14T17:36:57.544Z,2.32
2018-12-14T17:39:27.246Z,2.31
2018-12-14T17:41:56.032Z,2.31
2018-12-14T17:44:24.820Z,2.29
2018-12-14T17:46:53.607Z,2.24
2018-12-14T17:49:22.593Z,2.21
2018-12-14T17:51:51.523Z,2.19
2018-12-14T17:54:20.403Z,2.20
2018-12-14T17:56:49.784Z,2.25
2018-12-14T17:59:19.298Z,2.25
2018-12-14T18:01:48.995Z,2.22
2018-12-14T18:04:18.115Z,2.25
2018-12-14T18:06:47.008Z,2.22
2018-12-14T18:09:17.119Z,2.22
2018-12-14T18:11:45.940Z,2.23
2018-12-14T18:14:14.804Z,2.25
2018-12-14T18:16:43.584Z,2.27
2018-12-14T18:19:12.663Z,2.31
2018-12-14T18:21:41.403Z,2.35
2018-12-14T18:24:10.211Z,2.37
2018-12-14T18:26:39.074Z,2.39
2018-12-14T18:29:07.859Z,2.39
2018-12-14T18:31:36.681Z,2.38
2018-12-14T18:34:05.551Z,2.40
2018-12-14T18:36:34.371Z,2.38
2018-12-14T18:39:03.211Z,2.37
2018-12-14T18:41:32.867Z,2.33
2018-12-14T18:44:01.935Z,2.30
2018-12-14T18:46:31.198Z,2.30
2018-12-14T18:48:59.994Z,2.31
2018-12-14T18:51:28.822Z,2.29
2018-12-14T18:53:59.881Z,2.25
2018-12-14T18:56:29.713Z,2.28
2018-12-14T18:58:59.744Z,2.27
2018-12-14T19:01:28.526Z,2.27
2018-12-14T19:03:57.452Z,2.27
2018-12-14T19:06:26.235Z,2.27
2018-12-14T19:08:55.028Z,2.27
2018-12-14T19:11:23.828Z,2.28
2018-12-14T19:13:52.625Z,2.28
2018-12-14T19:16:21.419Z,2.26
2018-12-14T19:18:50.212Z,2.26
2018-12-14T19:21:18.991Z,2.24
2018-12-14T19:23:47.800Z,2.26
2018-12-14T19:26:16.598Z,2.24
2018-12-14T19:28:46.539Z,2.22
2018-12-14T19:31:15.347Z,2.21
2018-12-14T19:33:44.167Z,2.22
2018-12-14T19:36:12.984Z,2.22
2018-12-14T19:38:41.791Z,2.23
2018-12-14T19:41:11.323Z,2.24
2018-12-14T19:43:41.325Z,2.22
2018-12-14T19:46:10.154Z,2.23
2018-12-14T19:48:39.041Z,2.25
2018-12-14T19:51:07.831Z,2.25
2018-12-14T19:53:36.611Z,2.25
2018-12-14T19:56:05.404Z,2.21
2018-12-14T19:58:34.296Z,2.16
2018-12-14T20:01:03.108Z,2.16
2018-12-14T20:03:32.655Z,2.13
2018-12-14T20:06:01.459Z,2.10
2018-12-14T20:08:30.600Z,2.10
2018-12-14T20:10:59.780Z,2.07
2018-12-14T20:13:28.972Z,2.09
2018-12-14T20:15:57.956Z,2.08
2018-12-14T20:18:26.755Z,2.09
2018-12-14T20:20:55.548Z,2.10
2018-12-14T20:23:24.488Z,2.09
2018-12-14T20:25:53.670Z,2.12
2018-12-14T20:28:22.587Z,2.10
2018-12-14T20:30:51.386Z,2.11
2018-12-14T20:33:20.182Z,2.14
2018-12-14T20:35:48.991Z,2.11
2018-12-14T20:38:17.815Z,2.08
2018-12-14T20:40:46.615Z,2.08
2018-12-14T20:43:15.414Z,2.08
2018-12-14T20:45:44.211Z,2.09
2018-12-14T20:48:13.700Z,2.06
2018-12-14T20:50:42.496Z,2.06
2018-12-14T20:53:11.318Z,2.03
2018-12-14T20:55:40.446Z,2.00
2018-12-14T20:58:09.296Z,2.01
2018-12-14T21:00:38.245Z,2.00
2018-12-14T21:03:10.630Z,2.01
2018-12-14T21:05:39.426Z,1.99
2018-12-14T21:08:08.216Z,1.94
2018-12-14T21:10:37.064Z,1.93
2018-12-14T21:13:05.884Z,1.91
2018-12-14T21:15:34.742Z,1.93
2018-12-14T21:18:03.541Z,1.92
2018-12-14T21:20:32.332Z,1.89
2018-12-14T21:23:01.127Z,1.89
2018-12-14T21:25:30.011Z,1.86
2018-12-14T21:27:58.796Z,1.85
2018-12-14T21:30:27.584Z,1.84
2018-12-14T21:32:56.375Z,1.88
2018-12-14T21:35:25.160Z,1.87
2018-12-14T21:37:53.956Z,1.88
2018-12-14T21:40:22.796Z,1.85
2018-12-14T21:42:51.620Z,1.84
2018-12-14T21:45:20.413Z,1.83
2018-12-14T21:47:50.098Z,1.83
2018-12-14T21:50:19.601Z,1.80
2018-12-14T21:52:48.446Z,1.80
2018-12-14T21:55:18.242Z,1.85
2018-12-14T21:57:47.943Z,1.89
2018-12-14T22:00:16.806Z,1.92
2018-12-14T22:02:45.623Z,1.90
2018-12-14T22:05:14.508Z,1.84
2018-12-14T22:07:43.339Z,1.82
2018-12-14T22:10:13.004Z,1.83
2018-12-14T22:12:41.803Z,1.85
2018-12-14T22:15:10.992Z,1.89
2018-12-14T22:17:39.778Z,1.88
2018-12-14T22:20:08.575Z,1.91
2018-12-14T22:22:37.691Z,1.91
2018-12-14T22:25:06.519Z,1.87
2018-12-14T22:27:35.327Z,1.84
2018-12-14T22:30:04.171Z,1.81
2018-12-14T22:32:34.315Z,1.79
2018-12-14T22:35:03.866Z,1.81
2018-12-14T22:37:33.271Z,1.80
2018-12-14T22:40:02.118Z,1.80
2018-12-14T22:42:32.598Z,1.79
2018-12-14T22:45:01.398Z,1.78
2018-12-14T22:47:30.264Z,1.80
2018-12-14T22:49:59.153Z,1.82
2018-12-14T22:52:28.096Z,1.86
2018-12-14T22:54:57.546Z,1.88
2018-12-14T22:57:26.338Z,1.83
2018-12-14T22:59:55.354Z,1.83
2018-12-14T23:02:24.202Z,1.86
2018-12-14T23:04:53.110Z,1.88
2018-12-14T23:07:21.991Z,1.90
2018-12-14T23:09:50.875Z,1.88
2018-12-14T23:12:19.664Z,1.87
2018-12-14T23:14:48.471Z,1.87
2018-12-14T23:17:17.342Z,1.84
2018-12-14T23:19:46.139Z,1.86
2018-12-14T23:22:15.532Z,1.83
2018-12-14T23:24:44.347Z,1.85
2018-12-14T23:27:13.148Z,1.85
2018-12-14T23:29:42.278Z,1.86
2018-12-14T23:32:11.115Z,1.92
2018-12-14T23:34:39.915Z,1.93
2018-12-14T23:37:13.840Z,1.87
2018-12-14T23:39:37.537Z,1.95
2018-12-14T23:42:06.671Z,1.85
2018-12-14T23:44:35.466Z,1.81
2018-12-14T23:47:04.281Z,1.88
2018-12-14T23:49:33.717Z,1.79
2018-12-14T23:52:02.535Z,1.76
2018-12-14T23:54:31.939Z,1.77
2018-12-14T23:57:00.745Z,1.75
2018-12-14T23:59:29.558Z,1.76
